Terminal Aerodrome Forecast
Issued by NWS

Home | Current Version | Previous Version | Text Only | Print | Product List | Glossary On
Versions: 1 2 3 4 5 6 7 8 9 10 11 12 13 14 15 16 17 18 19
000
FTUS44 KHGX 221757 AAA
TAFSGR
TAF AMD
KSGR 221757Z 2218/2318 11012KT P6SM SCT035
     FM230200 11004KT P6SM SCT250
     FM231400 11007KT P6SM SCT020=

USA.gov is the U.S. government's official web portal to all federal, state and local government web resources and services.